PWSweather.com
Personal Weather Stations
Station Observations
BULSHOEK
ClanwilliamZA

ClanwilliamZA

Lat: -32.003, Lon: 18.782

Elevation: 213

Station Type: Davis Vantage Pro

High Low Average
Temperature 108.4°F42.4°C 78.6°F25.9°C 88.5°F31.4°C
Dew Point 72.8°F22.7°C 64.0°F17.8°C 67.3°F19.6°C
Winds 8.0 mph 12.9 kmh Calm Calm 1.0 mph ESE1.6 kmh ESE
Wind Gusts 23.0 mph37.0 kmh -- 5.0 mph8.0 kmh
Humidity 72% 26% 52%
Pressure 29.86 in1011.2 mb 29.71 in1006.1 mb -
Precipitation 0.03 in0.8 mm - -
Hour Temp Dew Point Humidity Winds Wind Gusts Pressure Precip Precip Rate Daily Precip Total
12:00 AM 81.4°F27.4°C 66.6°F19.2°C 61% Calm Calm -- 29.86 in1011.2 mb 0.01 in0.3 mm 0.00 in0.0 mm 0.01 in0.3 mm
12:05 AM 80.9°F27.2°C 66.2°F19.0°C 61% Calm Calm -- 29.86 in1011.2 mb 0.01 in0.3 mm 0.00 in0.0 mm 0.01 in0.3 mm
12:10 AM 80.5°F26.9°C 65.8°F18.8°C 61% Calm Calm -- 29.86 in1011.2 mb 0.01 in0.3 mm 0.00 in0.0 mm 0.01 in0.3 mm
12:15 AM 80.4°F26.9°C 65.7°F18.7°C 61% Calm Calm -- 29.86 in1011.2 mb 0.01 in0.3 mm 0.00 in0.0 mm 0.01 in0.3 mm
12:20 AM 80.2°F26.8°C 66.0°F18.9°C 62% Calm Calm -- 29.86 in1011.2 mb 0.01 in0.3 mm 0.00 in0.0 mm 0.01 in0.3 mm
12:25 AM 80.1°F26.7°C 66.8°F19.3°C 64% Calm Calm -- 29.86 in1011.2 mb 0.01 in0.3 mm 0.00 in0.0 mm 0.01 in0.3 mm
12:30 AM 79.7°F26.5°C 66.9°F19.4°C 65% Calm Calm -- 29.86 in1011.2 mb 0.01 in0.3 mm 0.00 in0.0 mm 0.01 in0.3 mm
12:35 AM 79.3°F26.3°C 66.5°F19.2°C 65% Calm Calm 1.0 mph1.6 kmh 29.86 in1011.2 mb 0.01 in0.3 mm 0.00 in0.0 mm 0.01 in0.3 mm
12:40 AM 79.4°F26.3°C 66.1°F18.9°C 64% Calm Calm 7.0 mph11.3 kmh 29.86 in1011.2 mb 0.00 in0.0 mm 0.00 in0.0 mm 0.01 in0.3 mm
12:45 AM 80.0°F26.7°C 65.8°F18.8°C 62% Calm Calm 7.0 mph11.3 kmh 29.86 in1011.2 mb 0.00 in0.0 mm 0.00 in0.0 mm 0.01 in0.3 mm
12:50 AM 80.5°F26.9°C 66.3°F19.1°C 62% Calm Calm 3.0 mph4.8 kmh 29.86 in1011.2 mb 0.00 in0.0 mm 0.00 in0.0 mm 0.01 in0.3 mm
12:55 AM 80.5°F26.9°C 65.8°F18.8°C 61% Calm Calm 2.0 mph3.2 kmh 29.86 in1011.2 mb 0.00 in0.0 mm 0.00 in0.0 mm 0.01 in0.3 mm
01:00 AM 80.9°F27.2°C 66.2°F19.0°C 61% Calm Calm 3.0 mph4.8 kmh 29.86 in1011.2 mb 0.00 in0.0 mm 0.00 in0.0 mm 0.01 in0.3 mm
01:05 AM 81.1°F27.3°C 65.9°F18.8°C 60% Calm Calm -- 29.86 in1011.2 mb 0.00 in0.0 mm 0.00 in0.0 mm 0.01 in0.3 mm
01:10 AM 81.1°F27.3°C 65.4°F18.6°C 59% Calm Calm -- 29.86 in1011.2 mb 0.00 in0.0 mm 0.00 in0.0 mm 0.01 in0.3 mm
01:15 AM 81.2°F27.3°C 65.5°F18.6°C 59% Calm Calm 3.0 mph4.8 kmh 29.86 in1011.2 mb 0.00 in0.0 mm 0.00 in0.0 mm 0.01 in0.3 mm
01:20 AM 81.3°F27.4°C 65.6°F18.7°C 59% Calm Calm 3.0 mph4.8 kmh 29.86 in1011.2 mb 0.00 in0.0 mm 0.00 in0.0 mm 0.01 in0.3 mm
01:25 AM 81.3°F27.4°C 66.1°F18.9°C 60% Calm Calm 3.0 mph4.8 kmh 29.86 in1011.2 mb 0.00 in0.0 mm 0.00 in0.0 mm 0.01 in0.3 mm
01:30 AM 81.5°F27.5°C 65.8°F18.8°C 59% 1.0 mph 1.6 kmh 9.0 mph14.5 kmh 29.86 in1011.2 mb 0.01 in0.3 mm 0.12 in3.0 mm 0.01 in0.3 mm
01:35 AM 81.6°F27.6°C 66.3°F19.1°C 60% Calm Calm 3.0 mph4.8 kmh 29.86 in1011.2 mb 0.01 in0.3 mm 0.00 in0.0 mm 0.01 in0.3 mm
01:40 AM 81.7°F27.6°C 66.0°F18.9°C 59% 1.0 mph NE1.6 kmh NE 7.0 mph11.3 kmh 29.86 in1011.2 mb 0.01 in0.3 mm 0.00 in0.0 mm 0.01 in0.3 mm
01:45 AM 82.1°F27.8°C 66.8°F19.3°C 60% 1.0 mph E1.6 kmh E 13.0 mph20.9 kmh 29.85 in1010.8 mb 0.01 in0.3 mm 0.00 in0.0 mm 0.01 in0.3 mm
01:50 AM 81.9°F27.7°C 66.6°F19.2°C 60% 1.0 mph E1.6 kmh E 15.0 mph24.1 kmh 29.85 in1010.8 mb 0.01 in0.3 mm 0.00 in0.0 mm 0.01 in0.3 mm
01:55 AM 82.1°F27.8°C 66.3°F19.1°C 59% 1.0 mph ESE1.6 kmh ESE 15.0 mph24.1 kmh 29.85 in1010.8 mb 0.01 in0.3 mm 0.00 in0.0 mm 0.01 in0.3 mm
02:00 AM 82.2°F27.9°C 66.4°F19.1°C 59% Calm Calm 4.0 mph6.4 kmh 29.84 in1010.5 mb 0.01 in0.3 mm 0.00 in0.0 mm 0.01 in0.3 mm
02:05 AM 82.5°F28.1°C 66.2°F19.0°C 58% 3.0 mph ESE4.8 kmh ESE 10.0 mph16.1 kmh 29.84 in1010.5 mb 0.01 in0.3 mm 0.00 in0.0 mm 0.01 in0.3 mm
02:10 AM 82.7°F28.2°C 65.9°F18.8°C 57% 2.0 mph ESE3.2 kmh ESE 9.0 mph14.5 kmh 29.84 in1010.5 mb 0.01 in0.3 mm 0.00 in0.0 mm 0.01 in0.3 mm
02:15 AM 82.8°F28.2°C 66.0°F18.9°C 57% 1.0 mph E1.6 kmh E 8.0 mph12.9 kmh 29.84 in1010.5 mb 0.01 in0.3 mm 0.00 in0.0 mm 0.01 in0.3 mm
02:20 AM 82.7°F28.2°C 65.4°F18.6°C 56% Calm Calm 4.0 mph6.4 kmh 29.84 in1010.5 mb 0.01 in0.3 mm 0.00 in0.0 mm 0.01 in0.3 mm
02:25 AM 82.6°F28.1°C 65.3°F18.5°C 56% Calm Calm -- 29.84 in1010.5 mb 0.01 in0.3 mm 0.00 in0.0 mm 0.01 in0.3 mm
02:30 AM 82.5°F28.1°C 65.2°F18.4°C 56% Calm Calm -- 29.84 in1010.5 mb 0.00 in0.0 mm 0.00 in0.0 mm 0.01 in0.3 mm
02:35 AM 82.4°F28.0°C 65.1°F18.4°C 56% Calm Calm -- 29.84 in1010.5 mb 0.00 in0.0 mm 0.00 in0.0 mm 0.01 in0.3 mm
02:40 AM 82.7°F28.2°C 64.3°F17.9°C 54% Calm Calm 1.0 mph1.6 kmh 29.84 in1010.5 mb 0.00 in0.0 mm 0.00 in0.0 mm 0.01 in0.3 mm
02:45 AM 82.7°F28.2°C 64.3°F17.9°C 54% Calm Calm 1.0 mph1.6 kmh 29.84 in1010.5 mb 0.00 in0.0 mm 0.00 in0.0 mm 0.01 in0.3 mm
02:50 AM 82.6°F28.1°C 64.8°F18.2°C 55% Calm Calm -- 29.84 in1010.5 mb 0.00 in0.0 mm 0.00 in0.0 mm 0.01 in0.3 mm
02:55 AM 82.7°F28.2°C 64.3°F17.9°C 54% Calm Calm -- 29.84 in1010.5 mb 0.00 in0.0 mm 0.00 in0.0 mm 0.01 in0.3 mm
03:00 AM 82.6°F28.1°C 65.8°F18.8°C 57% Calm Calm -- 29.83 in1010.2 mb 0.00 in0.0 mm 0.00 in0.0 mm 0.01 in0.3 mm
03:05 AM 82.1°F27.8°C 65.8°F18.8°C 58% Calm Calm -- 29.83 in1010.2 mb 0.00 in0.0 mm 0.00 in0.0 mm 0.01 in0.3 mm
03:10 AM 82.3°F27.9°C 65.0°F18.3°C 56% Calm Calm 1.0 mph1.6 kmh 29.83 in1010.2 mb 0.00 in0.0 mm 0.00 in0.0 mm 0.01 in0.3 mm
03:15 AM 83.3°F28.5°C 64.4°F18.0°C 53% Calm Calm 2.0 mph3.2 kmh 29.82 in1009.8 mb 0.00 in0.0 mm 0.00 in0.0 mm 0.01 in0.3 mm
03:20 AM 83.6°F28.7°C 64.6°F18.1°C 53% Calm Calm -- 29.82 in1009.8 mb 0.00 in0.0 mm 0.00 in0.0 mm 0.01 in0.3 mm
03:25 AM 83.3°F28.5°C 64.9°F18.3°C 54% Calm Calm -- 29.82 in1009.8 mb 0.00 in0.0 mm 0.00 in0.0 mm 0.01 in0.3 mm
03:30 AM 82.9°F28.3°C 66.1°F18.9°C 57% Calm Calm -- 29.82 in1009.8 mb 0.00 in0.0 mm 0.00 in0.0 mm 0.01 in0.3 mm
03:35 AM 82.4°F28.0°C 65.1°F18.4°C 56% Calm Calm -- 29.82 in1009.8 mb 0.00 in0.0 mm 0.00 in0.0 mm 0.01 in0.3 mm
03:40 AM 82.3°F27.9°C 66.0°F18.9°C 58% Calm Calm -- 29.82 in1009.8 mb 0.00 in0.0 mm 0.00 in0.0 mm 0.01 in0.3 mm
03:45 AM 82.1°F27.8°C 64.3°F17.9°C 55% Calm Calm 1.0 mph1.6 kmh 29.81 in1009.5 mb 0.00 in0.0 mm 0.00 in0.0 mm 0.01 in0.3 mm
03:50 AM 82.9°F28.3°C 64.5°F18.1°C 54% Calm Calm 1.0 mph1.6 kmh 29.81 in1009.5 mb 0.00 in0.0 mm 0.00 in0.0 mm 0.01 in0.3 mm
03:55 AM 83.8°F28.8°C 64.3°F17.9°C 52% Calm Calm 2.0 mph3.2 kmh 29.81 in1009.5 mb 0.00 in0.0 mm 0.00 in0.0 mm 0.01 in0.3 mm
04:00 AM 83.9°F28.8°C 66.0°F18.9°C 55% Calm Calm -- 29.81 in1009.5 mb 0.00 in0.0 mm 0.00 in0.0 mm 0.01 in0.3 mm
04:10 AM 83.0°F28.3°C 66.2°F19.0°C 57% Calm Calm -- 29.81 in1009.5 mb 0.00 in0.0 mm 0.00 in0.0 mm 0.01 in0.3 mm
04:15 AM 82.6°F28.1°C 65.3°F18.5°C 56% Calm Calm -- 29.80 in1009.1 mb 0.01 in0.3 mm 0.12 in3.0 mm 0.02 in0.5 mm
04:20 AM 82.7°F28.2°C 64.9°F18.3°C 55% Calm Calm -- 29.80 in1009.1 mb 0.01 in0.3 mm 0.00 in0.0 mm 0.02 in0.5 mm
04:25 AM 82.7°F28.2°C 65.4°F18.6°C 56% Calm Calm -- 29.80 in1009.1 mb 0.01 in0.3 mm 0.00 in0.0 mm 0.02 in0.5 mm
04:30 AM 82.6°F28.1°C 66.8°F19.3°C 59% Calm Calm -- 29.81 in1009.5 mb 0.01 in0.3 mm 0.00 in0.0 mm 0.02 in0.5 mm
04:35 AM 82.0°F27.8°C 65.7°F18.7°C 58% Calm Calm -- 29.81 in1009.5 mb 0.01 in0.3 mm 0.00 in0.0 mm 0.02 in0.5 mm
04:40 AM 82.1°F27.8°C 64.3°F17.9°C 55% Calm Calm 1.0 mph1.6 kmh 29.81 in1009.5 mb 0.01 in0.3 mm 0.00 in0.0 mm 0.02 in0.5 mm
04:45 AM 82.5°F28.1°C 65.2°F18.4°C 56% Calm Calm 1.0 mph1.6 kmh 29.81 in1009.5 mb 0.01 in0.3 mm 0.00 in0.0 mm 0.02 in0.5 mm
04:50 AM 82.4°F28.0°C 64.6°F18.1°C 55% Calm Calm -- 29.81 in1009.5 mb 0.01 in0.3 mm 0.00 in0.0 mm 0.02 in0.5 mm
04:55 AM 82.5°F28.1°C 64.7°F18.2°C 55% Calm Calm -- 29.81 in1009.5 mb 0.01 in0.3 mm 0.00 in0.0 mm 0.02 in0.5 mm
05:00 AM 82.3°F27.9°C 65.5°F18.6°C 57% Calm Calm -- 29.82 in1009.8 mb 0.01 in0.3 mm 0.00 in0.0 mm 0.02 in0.5 mm
05:05 AM 81.6°F27.6°C 65.4°F18.6°C 58% Calm Calm 1.0 mph1.6 kmh 29.82 in1009.8 mb 0.01 in0.3 mm 0.00 in0.0 mm 0.02 in0.5 mm
05:10 AM 81.0°F27.2°C 65.3°F18.5°C 59% Calm Calm 2.0 mph3.2 kmh 29.82 in1009.8 mb 0.01 in0.3 mm 0.00 in0.0 mm 0.02 in0.5 mm
05:15 AM 80.5°F26.9°C 65.3°F18.5°C 60% Calm Calm -- 29.82 in1009.8 mb 0.00 in0.0 mm 0.00 in0.0 mm 0.02 in0.5 mm
05:20 AM 80.1°F26.7°C 65.4°F18.6°C 61% Calm Calm -- 29.82 in1009.8 mb 0.00 in0.0 mm 0.00 in0.0 mm 0.02 in0.5 mm
05:25 AM 79.7°F26.5°C 65.5°F18.6°C 62% Calm Calm -- 29.82 in1009.8 mb 0.00 in0.0 mm 0.00 in0.0 mm 0.02 in0.5 mm
05:30 AM 79.4°F26.3°C 65.2°F18.4°C 62% Calm Calm -- 29.83 in1010.2 mb 0.00 in0.0 mm 0.00 in0.0 mm 0.02 in0.5 mm
05:35 AM 79.2°F26.2°C 65.0°F18.3°C 62% Calm Calm -- 29.83 in1010.2 mb 0.00 in0.0 mm 0.00 in0.0 mm 0.02 in0.5 mm
05:40 AM 79.1°F26.2°C 65.4°F18.6°C 63% Calm Calm -- 29.83 in1010.2 mb 0.00 in0.0 mm 0.00 in0.0 mm 0.02 in0.5 mm
05:45 AM 78.7°F25.9°C 65.5°F18.6°C 64% Calm Calm -- 29.83 in1010.2 mb 0.00 in0.0 mm 0.00 in0.0 mm 0.02 in0.5 mm
05:50 AM 78.6°F25.9°C 65.4°F18.6°C 64% Calm Calm 1.0 mph1.6 kmh 29.83 in1010.2 mb 0.00 in0.0 mm 0.00 in0.0 mm 0.02 in0.5 mm
05:55 AM 78.9°F26.1°C 65.2°F18.4°C 63% Calm Calm 1.0 mph1.6 kmh 29.83 in1010.2 mb 0.00 in0.0 mm 0.00 in0.0 mm 0.02 in0.5 mm
06:00 AM 79.1°F26.2°C 65.9°F18.8°C 64% Calm Calm -- 29.84 in1010.5 mb 0.00 in0.0 mm 0.00 in0.0 mm 0.02 in0.5 mm
06:05 AM 79.1°F26.2°C 65.9°F18.8°C 64% Calm Calm 1.0 mph1.6 kmh 29.84 in1010.5 mb 0.00 in0.0 mm 0.00 in0.0 mm 0.02 in0.5 mm
06:10 AM 79.4°F26.3°C 66.1°F18.9°C 64% Calm Calm 3.0 mph4.8 kmh 29.84 in1010.5 mb 0.00 in0.0 mm 0.00 in0.0 mm 0.02 in0.5 mm
06:15 AM 79.3°F26.3°C 66.0°F18.9°C 64% Calm Calm 3.0 mph4.8 kmh 29.84 in1010.5 mb 0.00 in0.0 mm 0.00 in0.0 mm 0.02 in0.5 mm
06:20 AM 79.0°F26.1°C 65.8°F18.8°C 64% Calm Calm 3.0 mph4.8 kmh 29.84 in1010.5 mb 0.00 in0.0 mm 0.00 in0.0 mm 0.02 in0.5 mm
06:25 AM 79.0°F26.1°C 66.2°F19.0°C 65% Calm Calm 1.0 mph1.6 kmh 29.84 in1010.5 mb 0.00 in0.0 mm 0.00 in0.0 mm 0.02 in0.5 mm
06:30 AM 79.0°F26.1°C 65.3°F18.5°C 63% Calm Calm -- 29.84 in1010.5 mb 0.00 in0.0 mm 0.00 in0.0 mm 0.02 in0.5 mm
06:35 AM 79.4°F26.3°C 65.7°F18.7°C 63% Calm Calm 3.0 mph4.8 kmh 29.84 in1010.5 mb 0.00 in0.0 mm 0.00 in0.0 mm 0.02 in0.5 mm
06:40 AM 79.8°F26.6°C 65.6°F18.7°C 62% Calm Calm 3.0 mph4.8 kmh 29.84 in1010.5 mb 0.00 in0.0 mm 0.00 in0.0 mm 0.02 in0.5 mm
06:45 AM 80.1°F26.7°C 65.4°F18.6°C 61% Calm Calm 5.0 mph8.0 kmh 29.85 in1010.8 mb 0.00 in0.0 mm 0.00 in0.0 mm 0.02 in0.5 mm
06:50 AM 80.0°F26.7°C 66.2°F19.0°C 63% Calm Calm -- 29.85 in1010.8 mb 0.00 in0.0 mm 0.00 in0.0 mm 0.02 in0.5 mm
06:55 AM 79.7°F26.5°C 66.4°F19.1°C 64% Calm Calm -- 29.85 in1010.8 mb 0.00 in0.0 mm 0.00 in0.0 mm 0.02 in0.5 mm
07:00 AM 79.6°F26.4°C 65.9°F18.8°C 63% Calm Calm -- 29.86 in1011.2 mb 0.00 in0.0 mm 0.00 in0.0 mm 0.02 in0.5 mm
07:05 AM 79.8°F26.6°C 67.0°F19.4°C 65% Calm Calm -- 29.86 in1011.2 mb 0.00 in0.0 mm 0.00 in0.0 mm 0.02 in0.5 mm
07:10 AM 79.6°F26.4°C 66.8°F19.3°C 65% Calm Calm -- 29.86 in1011.2 mb 0.00 in0.0 mm 0.00 in0.0 mm 0.02 in0.5 mm
07:15 AM 79.5°F26.4°C 66.7°F19.3°C 65% Calm Calm -- 29.86 in1011.2 mb 0.00 in0.0 mm 0.00 in0.0 mm 0.02 in0.5 mm
07:20 AM 79.4°F26.3°C 66.1°F18.9°C 64% Calm Calm -- 29.86 in1011.2 mb 0.00 in0.0 mm 0.00 in0.0 mm 0.02 in0.5 mm
07:25 AM 80.0°F26.7°C 65.8°F18.8°C 62% Calm Calm 1.0 mph1.6 kmh 29.86 in1011.2 mb 0.00 in0.0 mm 0.00 in0.0 mm 0.02 in0.5 mm
07:30 AM 81.0°F27.2°C 65.8°F18.8°C 60% Calm Calm -- 29.86 in1011.2 mb 0.00 in0.0 mm 0.00 in0.0 mm 0.02 in0.5 mm
07:35 AM 81.4°F27.4°C 66.2°F19.0°C 60% Calm Calm -- 29.86 in1011.2 mb 0.00 in0.0 mm 0.00 in0.0 mm 0.02 in0.5 mm
07:40 AM 81.8°F27.7°C 66.0°F18.9°C 59% Calm Calm -- 29.86 in1011.2 mb 0.00 in0.0 mm 0.00 in0.0 mm 0.02 in0.5 mm
07:45 AM 82.6°F28.1°C 66.3°F19.1°C 58% Calm Calm 3.0 mph4.8 kmh 29.86 in1011.2 mb 0.00 in0.0 mm 0.00 in0.0 mm 0.02 in0.5 mm
07:50 AM 84.1°F28.9°C 66.2°F19.0°C 55% Calm Calm 4.0 mph6.4 kmh 29.86 in1011.2 mb 0.00 in0.0 mm 0.00 in0.0 mm 0.02 in0.5 mm
07:55 AM 85.0°F29.4°C 66.5°F19.2°C 54% Calm Calm 1.0 mph1.6 kmh 29.86 in1011.2 mb 0.00 in0.0 mm 0.00 in0.0 mm 0.02 in0.5 mm
08:00 AM 85.8°F29.9°C 66.7°F19.3°C 53% Calm Calm 2.0 mph3.2 kmh 29.86 in1011.2 mb 0.00 in0.0 mm 0.00 in0.0 mm 0.02 in0.5 mm
08:05 AM 86.5°F30.3°C 66.2°F19.0°C 51% Calm Calm 3.0 mph4.8 kmh 29.86 in1011.2 mb 0.00 in0.0 mm 0.00 in0.0 mm 0.02 in0.5 mm
08:10 AM 87.0°F30.6°C 66.6°F19.2°C 51% Calm Calm 3.0 mph4.8 kmh 29.86 in1011.2 mb 0.00 in0.0 mm 0.00 in0.0 mm 0.02 in0.5 mm
08:15 AM 87.4°F30.8°C 66.4°F19.1°C 50% 1.0 mph SE1.6 kmh SE 8.0 mph12.9 kmh 29.86 in1011.2 mb 0.00 in0.0 mm 0.00 in0.0 mm 0.02 in0.5 mm
08:20 AM 87.7°F30.9°C 66.1°F18.9°C 49% 1.0 mph E1.6 kmh E 6.0 mph9.7 kmh 29.86 in1011.2 mb 0.00 in0.0 mm 0.00 in0.0 mm 0.02 in0.5 mm
08:25 AM 87.9°F31.1°C 66.9°F19.4°C 50% 1.0 mph 1.6 kmh 8.0 mph12.9 kmh 29.86 in1011.2 mb 0.01 in0.3 mm 0.12 in3.0 mm 0.02 in0.5 mm
08:30 AM 88.1°F31.2°C 67.1°F19.5°C 50% 2.0 mph NNW3.2 kmh NNW 11.0 mph17.7 kmh 29.85 in1010.8 mb 0.01 in0.3 mm 0.00 in0.0 mm 0.02 in0.5 mm
08:35 AM 88.4°F31.3°C 66.8°F19.3°C 49% 1.0 mph SE1.6 kmh SE 4.0 mph6.4 kmh 29.85 in1010.8 mb 0.01 in0.3 mm 0.00 in0.0 mm 0.02 in0.5 mm
08:40 AM 88.7°F31.5°C 66.4°F19.1°C 48% 2.0 mph 3.2 kmh 12.0 mph19.3 kmh 29.85 in1010.8 mb 0.01 in0.3 mm 0.00 in0.0 mm 0.02 in0.5 mm
08:45 AM 88.8°F31.6°C 66.5°F19.2°C 48% 4.0 mph 6.4 kmh 14.0 mph22.5 kmh 29.84 in1010.5 mb 0.01 in0.3 mm 0.00 in0.0 mm 0.02 in0.5 mm
08:50 AM 89.1°F31.7°C 66.8°F19.3°C 48% 3.0 mph NE4.8 kmh NE 12.0 mph19.3 kmh 29.84 in1010.5 mb 0.01 in0.3 mm 0.00 in0.0 mm 0.02 in0.5 mm
08:55 AM 89.3°F31.8°C 66.4°F19.1°C 47% 3.0 mph 4.8 kmh 11.0 mph17.7 kmh 29.84 in1010.5 mb 0.01 in0.3 mm 0.00 in0.0 mm 0.02 in0.5 mm
09:00 AM 89.5°F31.9°C 66.6°F19.2°C 47% 4.0 mph 6.4 kmh 13.0 mph20.9 kmh 29.84 in1010.5 mb 0.01 in0.3 mm 0.00 in0.0 mm 0.02 in0.5 mm
09:05 AM 89.6°F32.0°C 66.0°F18.9°C 46% 5.0 mph 8.0 kmh 18.0 mph29.0 kmh 29.84 in1010.5 mb 0.01 in0.3 mm 0.00 in0.0 mm 0.02 in0.5 mm
09:10 AM 89.9°F32.2°C 66.3°F19.1°C 46% 6.0 mph 9.7 kmh 19.0 mph30.6 kmh 29.84 in1010.5 mb 0.01 in0.3 mm 0.00 in0.0 mm 0.02 in0.5 mm
09:15 AM 90.2°F32.3°C 66.6°F19.2°C 46% 5.0 mph 8.0 kmh 14.0 mph22.5 kmh 29.84 in1010.5 mb 0.01 in0.3 mm 0.00 in0.0 mm 0.02 in0.5 mm
09:20 AM 90.2°F32.3°C 66.6°F19.2°C 46% 3.0 mph 4.8 kmh 12.0 mph19.3 kmh 29.84 in1010.5 mb 0.01 in0.3 mm 0.00 in0.0 mm 0.02 in0.5 mm
09:25 AM 90.5°F32.5°C 66.9°F19.4°C 46% 2.0 mph 3.2 kmh 11.0 mph17.7 kmh 29.84 in1010.5 mb 0.00 in0.0 mm 0.00 in0.0 mm 0.02 in0.5 mm
09:30 AM 90.7°F32.6°C 66.4°F19.1°C 45% 2.0 mph 3.2 kmh 15.0 mph24.1 kmh 29.84 in1010.5 mb 0.00 in0.0 mm 0.00 in0.0 mm 0.02 in0.5 mm
09:35 AM 90.7°F32.6°C 66.4°F19.1°C 45% 3.0 mph 4.8 kmh 16.0 mph25.7 kmh 29.84 in1010.5 mb 0.00 in0.0 mm 0.00 in0.0 mm 0.02 in0.5 mm
09:40 AM 90.7°F32.6°C 66.4°F19.1°C 45% 3.0 mph 4.8 kmh 15.0 mph24.1 kmh 29.84 in1010.5 mb 0.00 in0.0 mm 0.00 in0.0 mm 0.02 in0.5 mm
09:45 AM 90.6°F32.6°C 66.3°F19.1°C 45% 5.0 mph 8.0 kmh 18.0 mph29.0 kmh 29.84 in1010.5 mb 0.00 in0.0 mm 0.00 in0.0 mm 0.02 in0.5 mm
09:50 AM 90.7°F32.6°C 66.4°F19.1°C 45% 4.0 mph 6.4 kmh 14.0 mph22.5 kmh 29.84 in1010.5 mb 0.00 in0.0 mm 0.00 in0.0 mm 0.02 in0.5 mm
09:55 AM 91.2°F32.9°C 66.8°F19.3°C 45% 2.0 mph 3.2 kmh 11.0 mph17.7 kmh 29.84 in1010.5 mb 0.00 in0.0 mm 0.00 in0.0 mm 0.02 in0.5 mm
10:00 AM 91.4°F33.0°C 66.4°F19.1°C 44% 2.0 mph 3.2 kmh 10.0 mph16.1 kmh 29.84 in1010.5 mb 0.00 in0.0 mm 0.00 in0.0 mm 0.02 in0.5 mm
10:05 AM 91.5°F33.1°C 66.5°F19.2°C 44% 2.0 mph 3.2 kmh 9.0 mph14.5 kmh 29.84 in1010.5 mb 0.00 in0.0 mm 0.00 in0.0 mm 0.02 in0.5 mm
10:10 AM 91.3°F32.9°C 66.3°F19.1°C 44% 4.0 mph 6.4 kmh 15.0 mph24.1 kmh 29.84 in1010.5 mb 0.00 in0.0 mm 0.00 in0.0 mm 0.02 in0.5 mm
10:15 AM 91.6°F33.1°C 66.6°F19.2°C 44% 3.0 mph 4.8 kmh 15.0 mph24.1 kmh 29.83 in1010.2 mb 0.00 in0.0 mm 0.00 in0.0 mm 0.02 in0.5 mm
10:20 AM 91.9°F33.3°C 66.2°F19.0°C 43% 2.0 mph 3.2 kmh 12.0 mph19.3 kmh 29.83 in1010.2 mb 0.00 in0.0 mm 0.00 in0.0 mm 0.02 in0.5 mm
10:25 AM 92.0°F33.3°C 66.9°F19.4°C 44% 1.0 mph 1.6 kmh 11.0 mph17.7 kmh 29.83 in1010.2 mb 0.00 in0.0 mm 0.00 in0.0 mm 0.02 in0.5 mm
10:30 AM 92.2°F33.4°C 66.4°F19.1°C 43% 1.0 mph 1.6 kmh 6.0 mph9.7 kmh 29.84 in1010.5 mb 0.00 in0.0 mm 0.00 in0.0 mm 0.02 in0.5 mm
10:35 AM 92.4°F33.6°C 66.6°F19.2°C 43% 3.0 mph 4.8 kmh 11.0 mph17.7 kmh 29.84 in1010.5 mb 0.00 in0.0 mm 0.00 in0.0 mm 0.02 in0.5 mm
10:40 AM 92.7°F33.7°C 66.9°F19.4°C 43% 1.0 mph 1.6 kmh 9.0 mph14.5 kmh 29.84 in1010.5 mb 0.00 in0.0 mm 0.00 in0.0 mm 0.02 in0.5 mm
10:45 AM 93.0°F33.9°C 66.5°F19.2°C 42% 1.0 mph 1.6 kmh 10.0 mph16.1 kmh 29.84 in1010.5 mb 0.00 in0.0 mm 0.00 in0.0 mm 0.02 in0.5 mm
10:50 AM 93.2°F34.0°C 66.6°F19.2°C 42% 2.0 mph 3.2 kmh 8.0 mph12.9 kmh 29.84 in1010.5 mb 0.00 in0.0 mm 0.00 in0.0 mm 0.02 in0.5 mm
10:55 AM 93.7°F34.3°C 66.4°F19.1°C 41% 1.0 mph 1.6 kmh 8.0 mph12.9 kmh 29.84 in1010.5 mb 0.00 in0.0 mm 0.00 in0.0 mm 0.02 in0.5 mm
11:00 AM 94.6°F34.8°C 67.2°F19.6°C 41% Calm Calm 3.0 mph4.8 kmh 29.84 in1010.5 mb 0.00 in0.0 mm 0.00 in0.0 mm 0.02 in0.5 mm
11:05 AM 94.9°F34.9°C 67.5°F19.7°C 41% 1.0 mph 1.6 kmh 11.0 mph17.7 kmh 29.84 in1010.5 mb 0.00 in0.0 mm 0.00 in0.0 mm 0.02 in0.5 mm
11:10 AM 94.7°F34.8°C 66.6°F19.2°C 40% 1.0 mph 1.6 kmh 9.0 mph14.5 kmh 29.84 in1010.5 mb 0.00 in0.0 mm 0.00 in0.0 mm 0.02 in0.5 mm
11:15 AM 95.0°F35.0°C 66.8°F19.3°C 40% 1.0 mph 1.6 kmh 9.0 mph14.5 kmh 29.84 in1010.5 mb 0.00 in0.0 mm 0.00 in0.0 mm 0.02 in0.5 mm
11:20 AM 95.3°F35.2°C 67.1°F19.5°C 40% Calm Calm 6.0 mph9.7 kmh 29.84 in1010.5 mb 0.00 in0.0 mm 0.00 in0.0 mm 0.02 in0.5 mm
11:25 AM 95.7°F35.4°C 66.7°F19.3°C 39% 1.0 mph 1.6 kmh 10.0 mph16.1 kmh 29.84 in1010.5 mb 0.00 in0.0 mm 0.00 in0.0 mm 0.02 in0.5 mm
11:30 AM 96.5°F35.8°C 67.4°F19.7°C 39% 1.0 mph ENE1.6 kmh ENE 5.0 mph8.0 kmh 29.83 in1010.2 mb 0.00 in0.0 mm 0.00 in0.0 mm 0.02 in0.5 mm
11:35 AM 97.2°F36.2°C 68.1°F20.1°C 39% 1.0 mph 1.6 kmh 5.0 mph8.0 kmh 29.83 in1010.2 mb 0.00 in0.0 mm 0.00 in0.0 mm 0.02 in0.5 mm
11:40 AM 97.6°F36.4°C 67.6°F19.8°C 38% 1.0 mph 1.6 kmh 7.0 mph11.3 kmh 29.83 in1010.2 mb 0.00 in0.0 mm 0.00 in0.0 mm 0.02 in0.5 mm
11:45 AM 97.6°F36.4°C 66.9°F19.4°C 37% Calm Calm 8.0 mph12.9 kmh 29.82 in1009.8 mb 0.00 in0.0 mm 0.00 in0.0 mm 0.02 in0.5 mm
11:50 AM 98.3°F36.8°C 67.5°F19.7°C 37% Calm Calm 6.0 mph9.7 kmh 29.82 in1009.8 mb 0.00 in0.0 mm 0.00 in0.0 mm 0.02 in0.5 mm
11:55 AM 98.4°F36.9°C 67.6°F19.8°C 37% Calm Calm 5.0 mph8.0 kmh 29.82 in1009.8 mb 0.00 in0.0 mm 0.00 in0.0 mm 0.02 in0.5 mm
12:00 PM 99.3°F37.4°C 67.6°F19.8°C 36% Calm Calm 5.0 mph8.0 kmh 29.82 in1009.8 mb 0.00 in0.0 mm 0.00 in0.0 mm 0.02 in0.5 mm
12:05 PM 99.6°F37.6°C 65.3°F18.5°C 33% Calm Calm 5.0 mph8.0 kmh 29.82 in1009.8 mb 0.00 in0.0 mm 0.00 in0.0 mm 0.02 in0.5 mm
12:10 PM 99.7°F37.6°C 67.1°F19.5°C 35% Calm Calm 3.0 mph4.8 kmh 29.82 in1009.8 mb 0.00 in0.0 mm 0.00 in0.0 mm 0.02 in0.5 mm
12:15 PM 101.4°F38.6°C 68.6°F20.3°C 35% Calm Calm 4.0 mph6.4 kmh 29.81 in1009.5 mb 0.00 in0.0 mm 0.00 in0.0 mm 0.02 in0.5 mm
12:20 PM 101.8°F38.8°C 68.1°F20.1°C 34% 1.0 mph NNW1.6 kmh NNW 6.0 mph9.7 kmh 29.81 in1009.5 mb 0.00 in0.0 mm 0.00 in0.0 mm 0.02 in0.5 mm
12:25 PM 100.7°F38.2°C 67.1°F19.5°C 34% 1.0 mph 1.6 kmh 6.0 mph9.7 kmh 29.81 in1009.5 mb 0.00 in0.0 mm 0.00 in0.0 mm 0.02 in0.5 mm
12:30 PM 101.6°F38.7°C 67.9°F19.9°C 34% Calm Calm 1.0 mph1.6 kmh 29.80 in1009.1 mb 0.00 in0.0 mm 0.00 in0.0 mm 0.02 in0.5 mm
12:35 PM 102.1°F38.9°C 66.6°F19.2°C 32% Calm Calm 2.0 mph3.2 kmh 29.80 in1009.1 mb 0.00 in0.0 mm 0.00 in0.0 mm 0.02 in0.5 mm
12:40 PM 101.2°F38.4°C 65.8°F18.8°C 32% 1.0 mph NNW1.6 kmh NNW 5.0 mph8.0 kmh 29.80 in1009.1 mb 0.00 in0.0 mm 0.00 in0.0 mm 0.02 in0.5 mm
12:45 PM 101.4°F38.6°C 66.9°F19.4°C 33% 1.0 mph W1.6 kmh W 5.0 mph8.0 kmh 29.80 in1009.1 mb 0.00 in0.0 mm 0.00 in0.0 mm 0.02 in0.5 mm
12:50 PM 102.2°F39.0°C 66.7°F19.3°C 32% 1.0 mph NNW1.6 kmh NNW 4.0 mph6.4 kmh 29.80 in1009.1 mb 0.00 in0.0 mm 0.00 in0.0 mm 0.02 in0.5 mm
12:55 PM 103.7°F39.8°C 67.0°F19.4°C 31% Calm Calm 4.0 mph6.4 kmh 29.80 in1009.1 mb 0.00 in0.0 mm 0.00 in0.0 mm 0.02 in0.5 mm
01:00 PM 103.1°F39.5°C 66.5°F19.2°C 31% Calm Calm 6.0 mph9.7 kmh 29.79 in1008.8 mb 0.00 in0.0 mm 0.00 in0.0 mm 0.02 in0.5 mm
01:05 PM 103.7°F39.8°C 66.1°F18.9°C 30% Calm Calm 3.0 mph4.8 kmh 29.79 in1008.8 mb 0.00 in0.0 mm 0.00 in0.0 mm 0.02 in0.5 mm
01:10 PM 102.6°F39.2°C 66.1°F18.9°C 31% 1.0 mph NNW1.6 kmh NNW 4.0 mph6.4 kmh 29.79 in1008.8 mb 0.00 in0.0 mm 0.00 in0.0 mm 0.02 in0.5 mm
01:15 PM 103.8°F39.9°C 66.2°F19.0°C 30% Calm Calm 3.0 mph4.8 kmh 29.78 in1008.5 mb 0.00 in0.0 mm 0.00 in0.0 mm 0.02 in0.5 mm
01:20 PM 103.6°F39.8°C 65.0°F18.3°C 29% 1.0 mph NW1.6 kmh NW 3.0 mph4.8 kmh 29.78 in1008.5 mb 0.00 in0.0 mm 0.00 in0.0 mm 0.02 in0.5 mm
01:25 PM 103.2°F39.6°C 64.7°F18.2°C 29% Calm Calm 2.0 mph3.2 kmh 29.78 in1008.5 mb 0.00 in0.0 mm 0.00 in0.0 mm 0.02 in0.5 mm
01:30 PM 103.1°F39.5°C 66.5°F19.2°C 31% Calm Calm 1.0 mph1.6 kmh 29.78 in1008.5 mb 0.00 in0.0 mm 0.00 in0.0 mm 0.02 in0.5 mm
01:35 PM 104.4°F40.2°C 65.7°F18.7°C 29% Calm Calm 4.0 mph6.4 kmh 29.78 in1008.5 mb 0.00 in0.0 mm 0.00 in0.0 mm 0.02 in0.5 mm
01:40 PM 105.0°F40.6°C 66.2°F19.0°C 29% 1.0 mph NW1.6 kmh NW 3.0 mph4.8 kmh 29.78 in1008.5 mb 0.00 in0.0 mm 0.00 in0.0 mm 0.02 in0.5 mm
01:45 PM 105.3°F40.7°C 65.5°F18.6°C 28% Calm Calm 4.0 mph6.4 kmh 29.77 in1008.1 mb 0.00 in0.0 mm 0.00 in0.0 mm 0.02 in0.5 mm
01:50 PM 106.5°F41.4°C 65.4°F18.6°C 27% Calm Calm 2.0 mph3.2 kmh 29.77 in1008.1 mb 0.00 in0.0 mm 0.00 in0.0 mm 0.02 in0.5 mm
01:55 PM 107.7°F42.1°C 66.4°F19.1°C 27% Calm Calm 7.0 mph11.3 kmh 29.77 in1008.1 mb 0.00 in0.0 mm 0.00 in0.0 mm 0.02 in0.5 mm
02:00 PM 105.6°F40.9°C 65.7°F18.7°C 28% 1.0 mph NW1.6 kmh NW 6.0 mph9.7 kmh 29.76 in1007.8 mb 0.00 in0.0 mm 0.00 in0.0 mm 0.02 in0.5 mm
02:05 PM 104.1°F40.1°C 65.5°F18.6°C 29% Calm Calm 4.0 mph6.4 kmh 29.76 in1007.8 mb 0.00 in0.0 mm 0.00 in0.0 mm 0.02 in0.5 mm
02:10 PM 105.1°F40.6°C 66.3°F19.1°C 29% Calm Calm 3.0 mph4.8 kmh 29.76 in1007.8 mb 0.00 in0.0 mm 0.00 in0.0 mm 0.02 in0.5 mm
02:15 PM 105.7°F40.9°C 64.8°F18.2°C 27% 1.0 mph ESE1.6 kmh ESE 5.0 mph8.0 kmh 29.75 in1007.5 mb 0.00 in0.0 mm 0.00 in0.0 mm 0.02 in0.5 mm
02:20 PM 104.3°F40.2°C 65.6°F18.7°C 29% Calm Calm 3.0 mph4.8 kmh 29.75 in1007.5 mb 0.00 in0.0 mm 0.00 in0.0 mm 0.02 in0.5 mm
02:25 PM 104.6°F40.3°C 65.9°F18.8°C 29% 1.0 mph ENE1.6 kmh ENE 5.0 mph8.0 kmh 29.75 in1007.5 mb 0.00 in0.0 mm 0.00 in0.0 mm 0.02 in0.5 mm
02:30 PM 106.3°F41.3°C 65.3°F18.5°C 27% Calm Calm -- 29.74 in1007.1 mb 0.00 in0.0 mm 0.00 in0.0 mm 0.02 in0.5 mm
02:35 PM 105.2°F40.7°C 64.3°F17.9°C 27% Calm Calm 3.0 mph4.8 kmh 29.74 in1007.1 mb 0.00 in0.0 mm 0.00 in0.0 mm 0.02 in0.5 mm
02:40 PM 103.6°F39.8°C 65.0°F18.3°C 29% Calm Calm 4.0 mph6.4 kmh 29.74 in1007.1 mb 0.00 in0.0 mm 0.00 in0.0 mm 0.02 in0.5 mm
02:45 PM 103.7°F39.8°C 66.1°F18.9°C 30% Calm Calm 3.0 mph4.8 kmh 29.73 in1006.8 mb 0.00 in0.0 mm 0.00 in0.0 mm 0.02 in0.5 mm
02:50 PM 103.6°F39.8°C 65.0°F18.3°C 29% Calm Calm 1.0 mph1.6 kmh 29.73 in1006.8 mb 0.00 in0.0 mm 0.00 in0.0 mm 0.02 in0.5 mm
02:55 PM 105.6°F40.9°C 66.7°F19.3°C 29% Calm Calm -- 29.73 in1006.8 mb 0.00 in0.0 mm 0.00 in0.0 mm 0.02 in0.5 mm
03:00 PM 106.1°F41.2°C 64.0°F17.8°C 26% 1.0 mph NW1.6 kmh NW 7.0 mph11.3 kmh 29.72 in1006.4 mb 0.00 in0.0 mm 0.00 in0.0 mm 0.02 in0.5 mm
03:05 PM 105.0°F40.6°C 64.2°F17.9°C 27% 1.0 mph W1.6 kmh W 9.0 mph14.5 kmh 29.72 in1006.4 mb 0.00 in0.0 mm 0.00 in0.0 mm 0.02 in0.5 mm
03:10 PM 105.2°F40.7°C 65.4°F18.6°C 28% Calm Calm 4.0 mph6.4 kmh 29.72 in1006.4 mb 0.00 in0.0 mm 0.00 in0.0 mm 0.02 in0.5 mm
03:15 PM 107.0°F41.7°C 66.9°F19.4°C 28% Calm Calm 1.0 mph1.6 kmh 29.71 in1006.1 mb 0.00 in0.0 mm 0.00 in0.0 mm 0.02 in0.5 mm
03:20 PM 108.4°F42.4°C 65.9°F18.8°C 26% Calm Calm -- 29.71 in1006.1 mb 0.00 in0.0 mm 0.00 in0.0 mm 0.02 in0.5 mm
03:25 PM 107.6°F42.0°C 66.4°F19.1°C 27% Calm Calm 1.0 mph1.6 kmh 29.71 in1006.1 mb 0.00 in0.0 mm 0.00 in0.0 mm 0.02 in0.5 mm
03:30 PM 106.0°F41.1°C 66.1°F18.9°C 28% Calm Calm 1.0 mph1.6 kmh 29.71 in1006.1 mb 0.00 in0.0 mm 0.00 in0.0 mm 0.02 in0.5 mm
03:35 PM 104.9°F40.5°C 66.1°F18.9°C 29% Calm Calm 1.0 mph1.6 kmh 29.71 in1006.1 mb 0.00 in0.0 mm 0.00 in0.0 mm 0.02 in0.5 mm
03:40 PM 104.0°F40.0°C 66.4°F19.1°C 30% Calm Calm 1.0 mph1.6 kmh 29.71 in1006.1 mb 0.00 in0.0 mm 0.00 in0.0 mm 0.02 in0.5 mm
03:45 PM 101.7°F38.7°C 68.0°F20.0°C 34% 2.0 mph WNW3.2 kmh WNW 13.0 mph20.9 kmh 29.72 in1006.4 mb 0.01 in0.3 mm 0.12 in3.0 mm 0.03 in0.8 mm
03:50 PM 96.9°F36.1°C 67.0°F19.4°C 38% 8.0 mph NNW12.9 kmh NNW 23.0 mph37.0 kmh 29.72 in1006.4 mb 0.01 in0.3 mm 0.00 in0.0 mm 0.03 in0.8 mm
03:55 PM 88.7°F31.5°C 69.3°F20.7°C 53% 5.0 mph NNW8.0 kmh NNW 23.0 mph37.0 kmh 29.72 in1006.4 mb 0.01 in0.3 mm 0.00 in0.0 mm 0.03 in0.8 mm
04:00 PM 86.6°F30.3°C 70.0°F21.1°C 58% 1.0 mph NW1.6 kmh NW 7.0 mph11.3 kmh 29.72 in1006.4 mb 0.01 in0.3 mm 0.00 in0.0 mm 0.03 in0.8 mm
04:05 PM 86.1°F30.1°C 71.0°F21.7°C 61% 3.0 mph WNW4.8 kmh WNW 7.0 mph11.3 kmh 29.72 in1006.4 mb 0.01 in0.3 mm 0.00 in0.0 mm 0.03 in0.8 mm
04:10 PM 86.2°F30.1°C 72.6°F22.6°C 64% 3.0 mph NNW4.8 kmh NNW 7.0 mph11.3 kmh 29.72 in1006.4 mb 0.01 in0.3 mm 0.00 in0.0 mm 0.03 in0.8 mm
04:15 PM 86.6°F30.3°C 72.5°F22.5°C 63% 2.0 mph NNW3.2 kmh NNW 5.0 mph8.0 kmh 29.73 in1006.8 mb 0.01 in0.3 mm 0.00 in0.0 mm 0.03 in0.8 mm
04:20 PM 88.8°F31.6°C 71.0°F21.7°C 56% 4.0 mph NW6.4 kmh NW 8.0 mph12.9 kmh 29.73 in1006.8 mb 0.01 in0.3 mm 0.00 in0.0 mm 0.03 in0.8 mm
04:25 PM 90.4°F32.4°C 69.2°F20.7°C 50% 2.0 mph SW3.2 kmh SW 8.0 mph12.9 kmh 29.73 in1006.8 mb 0.01 in0.3 mm 0.00 in0.0 mm 0.03 in0.8 mm
04:30 PM 92.9°F33.8°C 68.4°F20.2°C 45% 4.0 mph SW6.4 kmh SW 8.0 mph12.9 kmh 29.73 in1006.8 mb 0.01 in0.3 mm 0.00 in0.0 mm 0.03 in0.8 mm
04:35 PM 94.1°F34.5°C 68.8°F20.4°C 44% 2.0 mph SW3.2 kmh SW 8.0 mph12.9 kmh 29.73 in1006.8 mb 0.01 in0.3 mm 0.00 in0.0 mm 0.03 in0.8 mm
04:40 PM 96.2°F35.7°C 70.0°F21.1°C 43% Calm Calm 5.0 mph8.0 kmh 29.73 in1006.8 mb 0.01 in0.3 mm 0.00 in0.0 mm 0.03 in0.8 mm
04:45 PM 96.5°F35.8°C 68.2°F20.1°C 40% 2.0 mph SSW3.2 kmh SSW 6.0 mph9.7 kmh 29.72 in1006.4 mb 0.00 in0.0 mm 0.00 in0.0 mm 0.03 in0.8 mm
04:50 PM 97.1°F36.2°C 67.2°F19.6°C 38% 3.0 mph SSW4.8 kmh SSW 8.0 mph12.9 kmh 29.72 in1006.4 mb 0.00 in0.0 mm 0.00 in0.0 mm 0.03 in0.8 mm
04:55 PM 97.3°F36.3°C 66.6°F19.2°C 37% 3.0 mph S4.8 kmh S 8.0 mph12.9 kmh 29.72 in1006.4 mb 0.00 in0.0 mm 0.00 in0.0 mm 0.03 in0.8 mm
05:00 PM 95.1°F35.1°C 66.9°F19.4°C 40% 6.0 mph ESE9.7 kmh ESE 15.0 mph24.1 kmh 29.75 in1007.5 mb 0.00 in0.0 mm 0.00 in0.0 mm 0.03 in0.8 mm
05:05 PM 93.0°F33.9°C 66.5°F19.2°C 42% 6.0 mph ENE9.7 kmh ENE 17.0 mph27.4 kmh 29.75 in1007.5 mb 0.00 in0.0 mm 0.00 in0.0 mm 0.03 in0.8 mm
05:10 PM 93.8°F34.3°C 67.2°F19.6°C 42% 7.0 mph ENE11.3 kmh ENE 13.0 mph20.9 kmh 29.75 in1007.5 mb 0.00 in0.0 mm 0.00 in0.0 mm 0.03 in0.8 mm
05:15 PM 93.0°F33.9°C 69.1°F20.6°C 46% 4.0 mph E6.4 kmh E 13.0 mph20.9 kmh 29.75 in1007.5 mb 0.00 in0.0 mm 0.00 in0.0 mm 0.03 in0.8 mm
05:20 PM 92.6°F33.7°C 69.4°F20.8°C 47% 3.0 mph ESE4.8 kmh ESE 13.0 mph20.9 kmh 29.75 in1007.5 mb 0.00 in0.0 mm 0.00 in0.0 mm 0.03 in0.8 mm
05:25 PM 92.2°F33.4°C 69.0°F20.6°C 47% 3.0 mph ESE4.8 kmh ESE 12.0 mph19.3 kmh 29.75 in1007.5 mb 0.00 in0.0 mm 0.00 in0.0 mm 0.03 in0.8 mm
05:30 PM 92.8°F33.8°C 68.9°F20.5°C 46% 2.0 mph ESE3.2 kmh ESE 10.0 mph16.1 kmh 29.75 in1007.5 mb 0.00 in0.0 mm 0.00 in0.0 mm 0.03 in0.8 mm
05:35 PM 93.6°F34.2°C 67.7°F19.8°C 43% 3.0 mph ESE4.8 kmh ESE 9.0 mph14.5 kmh 29.75 in1007.5 mb 0.00 in0.0 mm 0.00 in0.0 mm 0.03 in0.8 mm
05:40 PM 94.2°F34.6°C 68.2°F20.1°C 43% 3.0 mph ESE4.8 kmh ESE 15.0 mph24.1 kmh 29.75 in1007.5 mb 0.00 in0.0 mm 0.00 in0.0 mm 0.03 in0.8 mm
05:45 PM 93.4°F34.1°C 68.2°F20.1°C 44% 4.0 mph ESE6.4 kmh ESE 9.0 mph14.5 kmh 29.75 in1007.5 mb 0.00 in0.0 mm 0.00 in0.0 mm 0.03 in0.8 mm
05:50 PM 93.9°F34.4°C 68.0°F20.0°C 43% 4.0 mph E6.4 kmh E 12.0 mph19.3 kmh 29.75 in1007.5 mb 0.00 in0.0 mm 0.00 in0.0 mm 0.03 in0.8 mm
05:55 PM 93.4°F34.1°C 67.5°F19.7°C 43% 3.0 mph E4.8 kmh E 11.0 mph17.7 kmh 29.75 in1007.5 mb 0.00 in0.0 mm 0.00 in0.0 mm 0.03 in0.8 mm
06:00 PM 92.8°F33.8°C 66.3°F19.1°C 42% 6.0 mph ESE9.7 kmh ESE 17.0 mph27.4 kmh 29.76 in1007.8 mb 0.00 in0.0 mm 0.00 in0.0 mm 0.03 in0.8 mm
06:05 PM 92.4°F33.6°C 66.6°F19.2°C 43% 4.0 mph ESE6.4 kmh ESE 13.0 mph20.9 kmh 29.76 in1007.8 mb 0.00 in0.0 mm 0.00 in0.0 mm 0.03 in0.8 mm
06:10 PM 91.6°F33.1°C 67.8°F19.9°C 46% 4.0 mph ESE6.4 kmh ESE 9.0 mph14.5 kmh 29.76 in1007.8 mb 0.00 in0.0 mm 0.00 in0.0 mm 0.03 in0.8 mm
06:15 PM 91.1°F32.8°C 68.6°F20.3°C 48% 3.0 mph ESE4.8 kmh ESE 11.0 mph17.7 kmh 29.76 in1007.8 mb 0.00 in0.0 mm 0.00 in0.0 mm 0.03 in0.8 mm
06:20 PM 90.9°F32.7°C 67.8°F19.9°C 47% 2.0 mph ESE3.2 kmh ESE 5.0 mph8.0 kmh 29.76 in1007.8 mb 0.00 in0.0 mm 0.00 in0.0 mm 0.03 in0.8 mm
06:25 PM 90.8°F32.7°C 67.7°F19.8°C 47% 2.0 mph ESE3.2 kmh ESE 7.0 mph11.3 kmh 29.76 in1007.8 mb 0.00 in0.0 mm 0.00 in0.0 mm 0.03 in0.8 mm
06:30 PM 90.7°F32.6°C 67.7°F19.8°C 47% 1.0 mph ESE1.6 kmh ESE 6.0 mph9.7 kmh 29.76 in1007.8 mb 0.00 in0.0 mm 0.00 in0.0 mm 0.03 in0.8 mm
06:35 PM 90.6°F32.6°C 68.2°F20.1°C 48% 3.0 mph ESE4.8 kmh ESE 11.0 mph17.7 kmh 29.76 in1007.8 mb 0.00 in0.0 mm 0.00 in0.0 mm 0.03 in0.8 mm
06:40 PM 90.4°F32.4°C 69.2°F20.7°C 50% 2.0 mph ESE3.2 kmh ESE 6.0 mph9.7 kmh 29.76 in1007.8 mb 0.00 in0.0 mm 0.00 in0.0 mm 0.03 in0.8 mm
06:45 PM 90.1°F32.3°C 69.5°F20.8°C 51% 1.0 mph ESE1.6 kmh ESE 5.0 mph8.0 kmh 29.76 in1007.8 mb 0.00 in0.0 mm 0.00 in0.0 mm 0.03 in0.8 mm
06:50 PM 89.7°F32.1°C 69.7°F20.9°C 52% 3.0 mph ESE4.8 kmh ESE 9.0 mph14.5 kmh 29.76 in1007.8 mb 0.00 in0.0 mm 0.00 in0.0 mm 0.03 in0.8 mm
06:55 PM 89.2°F31.8°C 69.2°F20.7°C 52% 3.0 mph ESE4.8 kmh ESE 11.0 mph17.7 kmh 29.76 in1007.8 mb 0.00 in0.0 mm 0.00 in0.0 mm 0.03 in0.8 mm
07:00 PM 88.9°F31.6°C 69.0°F20.6°C 52% 5.0 mph ESE8.0 kmh ESE 13.0 mph20.9 kmh 29.78 in1008.5 mb 0.00 in0.0 mm 0.00 in0.0 mm 0.03 in0.8 mm
07:05 PM 88.8°F31.6°C 68.9°F20.5°C 52% 4.0 mph ESE6.4 kmh ESE 11.0 mph17.7 kmh 29.78 in1008.5 mb 0.00 in0.0 mm 0.00 in0.0 mm 0.03 in0.8 mm
07:10 PM 88.6°F31.4°C 69.2°F20.7°C 53% 4.0 mph ESE6.4 kmh ESE 10.0 mph16.1 kmh 29.78 in1008.5 mb 0.00 in0.0 mm 0.00 in0.0 mm 0.03 in0.8 mm
07:15 PM 88.3°F31.3°C 69.0°F20.6°C 53% 4.0 mph ESE6.4 kmh ESE 13.0 mph20.9 kmh 29.77 in1008.1 mb 0.00 in0.0 mm 0.00 in0.0 mm 0.03 in0.8 mm
07:20 PM 88.2°F31.2°C 68.9°F20.5°C 53% 4.0 mph ESE6.4 kmh ESE 10.0 mph16.1 kmh 29.77 in1008.1 mb 0.00 in0.0 mm 0.00 in0.0 mm 0.03 in0.8 mm
07:25 PM 88.1°F31.2°C 68.8°F20.4°C 53% 4.0 mph ESE6.4 kmh ESE 9.0 mph14.5 kmh 29.77 in1008.1 mb 0.00 in0.0 mm 0.00 in0.0 mm 0.03 in0.8 mm
07:30 PM 88.0°F31.1°C 69.2°F20.7°C 54% 2.0 mph ESE3.2 kmh ESE 8.0 mph12.9 kmh 29.77 in1008.1 mb 0.00 in0.0 mm 0.00 in0.0 mm 0.03 in0.8 mm
07:35 PM 87.9°F31.1°C 69.1°F20.6°C 54% 1.0 mph ESE1.6 kmh ESE 7.0 mph11.3 kmh 29.77 in1008.1 mb 0.00 in0.0 mm 0.00 in0.0 mm 0.03 in0.8 mm
07:40 PM 87.8°F31.0°C 69.6°F20.9°C 55% 2.0 mph ESE3.2 kmh ESE 8.0 mph12.9 kmh 29.77 in1008.1 mb 0.00 in0.0 mm 0.00 in0.0 mm 0.03 in0.8 mm
07:45 PM 87.3°F30.7°C 70.2°F21.2°C 57% 2.0 mph ESE3.2 kmh ESE 8.0 mph12.9 kmh 29.78 in1008.5 mb 0.00 in0.0 mm 0.00 in0.0 mm 0.03 in0.8 mm
07:50 PM 86.4°F30.2°C 70.8°F21.6°C 60% 1.0 mph ESE1.6 kmh ESE 5.0 mph8.0 kmh 29.78 in1008.5 mb 0.00 in0.0 mm 0.00 in0.0 mm 0.03 in0.8 mm
07:55 PM 85.6°F29.8°C 71.5°F21.9°C 63% Calm Calm -- 29.78 in1008.5 mb 0.00 in0.0 mm 0.00 in0.0 mm 0.03 in0.8 mm
08:00 PM 84.9°F29.4°C 72.2°F22.3°C 66% Calm Calm -- 29.78 in1008.5 mb 0.00 in0.0 mm 0.00 in0.0 mm 0.03 in0.8 mm
08:05 PM 84.3°F29.1°C 72.1°F22.3°C 67% Calm Calm -- 29.78 in1008.5 mb 0.00 in0.0 mm 0.00 in0.0 mm 0.03 in0.8 mm
08:10 PM 83.9°F28.8°C 71.7°F22.1°C 67% Calm Calm -- 29.78 in1008.5 mb 0.00 in0.0 mm 0.00 in0.0 mm 0.03 in0.8 mm
08:15 PM 83.7°F28.7°C 72.0°F22.2°C 68% Calm Calm -- 29.79 in1008.8 mb 0.00 in0.0 mm 0.00 in0.0 mm 0.03 in0.8 mm
08:20 PM 83.5°F28.6°C 71.4°F21.9°C 67% Calm Calm -- 29.79 in1008.8 mb 0.00 in0.0 mm 0.00 in0.0 mm 0.03 in0.8 mm
08:25 PM 83.5°F28.6°C 71.8°F22.1°C 68% Calm Calm 1.0 mph1.6 kmh 29.79 in1008.8 mb 0.00 in0.0 mm 0.00 in0.0 mm 0.03 in0.8 mm
08:30 PM 83.4°F28.6°C 72.1°F22.3°C 69% Calm Calm -- 29.79 in1008.8 mb 0.00 in0.0 mm 0.00 in0.0 mm 0.03 in0.8 mm
08:35 PM 83.3°F28.5°C 72.5°F22.5°C 70% Calm Calm -- 29.79 in1008.8 mb 0.00 in0.0 mm 0.00 in0.0 mm 0.03 in0.8 mm
08:40 PM 83.1°F28.4°C 72.3°F22.4°C 70% Calm Calm -- 29.79 in1008.8 mb 0.00 in0.0 mm 0.00 in0.0 mm 0.03 in0.8 mm
08:45 PM 83.0°F28.3°C 72.6°F22.6°C 71% Calm Calm -- 29.80 in1009.1 mb 0.00 in0.0 mm 0.00 in0.0 mm 0.03 in0.8 mm
08:50 PM 82.8°F28.2°C 72.4°F22.4°C 71% Calm Calm -- 29.80 in1009.1 mb 0.00 in0.0 mm 0.00 in0.0 mm 0.03 in0.8 mm
08:55 PM 82.8°F28.2°C 72.8°F22.7°C 72% Calm Calm -- 29.80 in1009.1 mb 0.00 in0.0 mm 0.00 in0.0 mm 0.03 in0.8 mm
09:00 PM 82.5°F28.1°C 72.1°F22.3°C 71% Calm Calm -- 29.81 in1009.5 mb 0.00 in0.0 mm 0.00 in0.0 mm 0.03 in0.8 mm
09:05 PM 82.5°F28.1°C 71.7°F22.1°C 70% Calm Calm 2.0 mph3.2 kmh 29.81 in1009.5 mb 0.00 in0.0 mm 0.00 in0.0 mm 0.03 in0.8 mm
09:10 PM 82.7°F28.2°C 71.9°F22.2°C 70% 1.0 mph ESE1.6 kmh ESE 6.0 mph9.7 kmh 29.81 in1009.5 mb 0.00 in0.0 mm 0.00 in0.0 mm 0.03 in0.8 mm
09:15 PM 82.7°F28.2°C 71.5°F21.9°C 69% Calm Calm 2.0 mph3.2 kmh 29.80 in1009.1 mb 0.00 in0.0 mm 0.00 in0.0 mm 0.03 in0.8 mm
09:20 PM 82.6°F28.1°C 71.8°F22.1°C 70% Calm Calm -- 29.80 in1009.1 mb 0.00 in0.0 mm 0.00 in0.0 mm 0.03 in0.8 mm
09:25 PM 82.4°F28.0°C 71.2°F21.8°C 69% 1.0 mph SSW1.6 kmh SSW 4.0 mph6.4 kmh 29.80 in1009.1 mb 0.00 in0.0 mm 0.00 in0.0 mm 0.03 in0.8 mm
09:30 PM 82.5°F28.1°C 71.3°F21.8°C 69% Calm Calm 3.0 mph4.8 kmh 29.81 in1009.5 mb 0.00 in0.0 mm 0.00 in0.0 mm 0.03 in0.8 mm
09:35 PM 82.7°F28.2°C 70.6°F21.4°C 67% 1.0 mph S1.6 kmh S 4.0 mph6.4 kmh 29.81 in1009.5 mb 0.00 in0.0 mm 0.00 in0.0 mm 0.03 in0.8 mm
09:40 PM 82.8°F28.2°C 70.7°F21.5°C 67% Calm Calm 2.0 mph3.2 kmh 29.81 in1009.5 mb 0.00 in0.0 mm 0.00 in0.0 mm 0.03 in0.8 mm
09:45 PM 82.9°F28.3°C 70.3°F21.3°C 66% 1.0 mph SE1.6 kmh SE 7.0 mph11.3 kmh 29.81 in1009.5 mb 0.00 in0.0 mm 0.00 in0.0 mm 0.03 in0.8 mm
09:50 PM 83.2°F28.4°C 70.2°F21.2°C 65% 2.0 mph SE3.2 kmh SE 7.0 mph11.3 kmh 29.81 in1009.5 mb 0.00 in0.0 mm 0.00 in0.0 mm 0.03 in0.8 mm
09:55 PM 83.4°F28.6°C 69.5°F20.8°C 63% 1.0 mph SSE1.6 kmh SSE 8.0 mph12.9 kmh 29.81 in1009.5 mb 0.00 in0.0 mm 0.00 in0.0 mm 0.03 in0.8 mm
10:00 PM 83.6°F28.7°C 69.6°F20.9°C 63% 3.0 mph SE4.8 kmh SE 7.0 mph11.3 kmh 29.81 in1009.5 mb 0.00 in0.0 mm 0.00 in0.0 mm 0.03 in0.8 mm
10:05 PM 83.6°F28.7°C 69.2°F20.7°C 62% 2.0 mph ESE3.2 kmh ESE 7.0 mph11.3 kmh 29.81 in1009.5 mb 0.00 in0.0 mm 0.00 in0.0 mm 0.03 in0.8 mm
10:10 PM 83.6°F28.7°C 69.2°F20.7°C 62% 1.0 mph ESE1.6 kmh ESE 7.0 mph11.3 kmh 29.81 in1009.5 mb 0.00 in0.0 mm 0.00 in0.0 mm 0.03 in0.8 mm
10:15 PM 83.5°F28.6°C 69.5°F20.8°C 63% Calm Calm 3.0 mph4.8 kmh 29.82 in1009.8 mb 0.00 in0.0 mm 0.00 in0.0 mm 0.03 in0.8 mm
10:20 PM 83.2°F28.4°C 68.8°F20.4°C 62% Calm Calm -- 29.82 in1009.8 mb 0.00 in0.0 mm 0.00 in0.0 mm 0.03 in0.8 mm
10:25 PM 83.0°F28.3°C 70.4°F21.3°C 66% Calm Calm -- 29.82 in1009.8 mb 0.00 in0.0 mm 0.00 in0.0 mm 0.03 in0.8 mm
10:30 PM 82.6°F28.1°C 70.1°F21.2°C 66% Calm Calm -- 29.82 in1009.8 mb 0.00 in0.0 mm 0.00 in0.0 mm 0.03 in0.8 mm
10:35 PM 82.1°F27.8°C 69.6°F20.9°C 66% Calm Calm -- 29.82 in1009.8 mb 0.00 in0.0 mm 0.00 in0.0 mm 0.03 in0.8 mm
10:40 PM 81.9°F27.7°C 69.0°F20.6°C 65% 2.0 mph SE3.2 kmh SE 4.0 mph6.4 kmh 29.82 in1009.8 mb 0.00 in0.0 mm 0.00 in0.0 mm 0.03 in0.8 mm
10:45 PM 81.9°F27.7°C 69.0°F20.6°C 65% 1.0 mph ESE1.6 kmh ESE 6.0 mph9.7 kmh 29.81 in1009.5 mb 0.00 in0.0 mm 0.00 in0.0 mm 0.03 in0.8 mm
10:50 PM 81.8°F27.7°C 68.4°F20.2°C 64% 2.0 mph ESE3.2 kmh ESE 6.0 mph9.7 kmh 29.81 in1009.5 mb 0.00 in0.0 mm 0.00 in0.0 mm 0.03 in0.8 mm
10:55 PM 81.7°F27.6°C 68.8°F20.4°C 65% 1.0 mph ESE1.6 kmh ESE 7.0 mph11.3 kmh 29.81 in1009.5 mb 0.00 in0.0 mm 0.00 in0.0 mm 0.03 in0.8 mm
11:00 PM 81.6°F27.6°C 68.7°F20.4°C 65% Calm Calm 1.0 mph1.6 kmh 29.81 in1009.5 mb 0.00 in0.0 mm 0.00 in0.0 mm 0.03 in0.8 mm
11:05 PM 81.7°F27.6°C 69.2°F20.7°C 66% 1.0 mph SE1.6 kmh SE 3.0 mph4.8 kmh 29.81 in1009.5 mb 0.00 in0.0 mm 0.00 in0.0 mm 0.03 in0.8 mm
11:10 PM 81.6°F27.6°C 69.1°F20.6°C 66% 1.0 mph S1.6 kmh S 4.0 mph6.4 kmh 29.81 in1009.5 mb 0.00 in0.0 mm 0.00 in0.0 mm 0.03 in0.8 mm
11:15 PM 81.5°F27.5°C 69.5°F20.8°C 67% Calm Calm 2.0 mph3.2 kmh 29.81 in1009.5 mb 0.00 in0.0 mm 0.00 in0.0 mm 0.03 in0.8 mm
11:20 PM 81.3°F27.4°C 69.3°F20.7°C 67% Calm Calm -- 29.81 in1009.5 mb 0.00 in0.0 mm 0.00 in0.0 mm 0.03 in0.8 mm
11:25 PM 81.0°F27.2°C 69.0°F20.6°C 67% Calm Calm -- 29.81 in1009.5 mb 0.00 in0.0 mm 0.00 in0.0 mm 0.03 in0.8 mm
11:30 PM 80.9°F27.2°C 68.9°F20.5°C 67% Calm Calm -- 29.81 in1009.5 mb 0.00 in0.0 mm 0.00 in0.0 mm 0.03 in0.8 mm
11:35 PM 80.9°F27.2°C 69.3°F20.7°C 68% Calm Calm -- 29.81 in1009.5 mb 0.00 in0.0 mm 0.00 in0.0 mm 0.03 in0.8 mm
11:40 PM 80.9°F27.2°C 69.8°F21.0°C 69% Calm Calm -- 29.81 in1009.5 mb 0.00 in0.0 mm 0.00 in0.0 mm 0.03 in0.8 mm
11:45 PM 80.7°F27.1°C 69.6°F20.9°C 69% Calm Calm -- 29.81 in1009.5 mb 0.00 in0.0 mm 0.00 in0.0 mm 0.03 in0.8 mm
11:50 PM 80.5°F26.9°C 69.4°F20.8°C 69% Calm Calm -- 29.81 in1009.5 mb 0.00 in0.0 mm 0.00 in0.0 mm 0.03 in0.8 mm
11:55 PM 80.5°F26.9°C 69.8°F21.0°C 70% Calm Calm -- 29.81 in1009.5 mb 0.00 in0.0 mm 0.00 in0.0 mm 0.03 in0.8 mm